Time;durP1;ratioP1;P1;durP2;ratioP2;P2;SDS_P1;SDS_P2;PMS_P1;PMS_P2;Temp;Humidity;BMP_temperature;BMP_pressure;BME280_temperature;BME280_humidity;BME280_pressure;Samples;Min_cycle;Max_cycle;Signal;HPM_P1;HPM_P2
2021/07/25 00:01:05;;;;;;;9.80;7.75;;;21.00;86.70;;;21.09;67.29;97042.81;4870008;29;20306;-40
2021/07/25 00:03:33;;;;;;;12.10;6.70;;;20.90;87.00;;;21.07;67.47;97044.94;4870209;29;20079;-40
2021/07/25 00:06:01;;;;;;;9.18;6.95;;;20.80;87.60;;;21.02;67.51;97046.50;4871138;29;20103;-41
2021/07/25 00:08:29;;;;;;;12.30;8.50;;;20.70;87.90;;;20.99;67.82;97041.56;4870757;29;20045;-41
2021/07/25 00:10:57;;;;;;;9.38;7.15;;;20.70;88.30;;;20.99;67.73;97038.03;4871481;29;20343;-40
2021/07/25 00:13:25;;;;;;;9.48;7.10;;;20.70;88.40;;;20.97;67.60;97038.28;4871235;29;20057;-41
2021/07/25 00:15:53;;;;;;;8.95;6.78;;;20.70;88.40;;;20.99;67.65;97032.63;4871244;29;20057;-41
2021/07/25 00:18:36;;;;;;;8.98;6.63;;;20.70;88.30;;;21.04;67.61;97032.72;4870985;29;20558;-41
2021/07/25 00:21:04;;;;;;;10.32;8.10;;;20.80;88.00;;;21.05;67.96;97028.94;4871854;29;20049;-39
2021/07/25 00:23:32;;;;;;;13.75;8.25;;;20.90;87.90;;;21.06;67.72;97027.06;4869943;29;20263;-39
2021/07/25 00:26:00;;;;;;;9.35;8.18;;;20.80;87.70;;;21.04;67.85;97021.91;4870301;29;20080;-41
2021/07/25 00:28:35;;;;;;;12.88;8.07;;;20.80;87.90;;;21.04;67.48;97030.84;4868676;29;20049;-39
2021/07/25 00:31:05;;;;;;;12.00;8.52;;;20.80;87.80;;;21.00;67.78;97035.09;4871418;29;20061;-40
2021/07/25 00:33:34;;;;;;;12.10;8.13;;;20.70;88.20;;;21.00;67.92;97031.56;4869995;29;20044;-39
2021/07/25 00:36:05;;;;;;;12.57;8.60;;;20.70;88.30;;;20.98;67.66;97039.94;4884382;29;20276;-40
2021/07/25 00:38:33;;;;;;;14.07;8.18;;;20.70;88.50;;;20.99;67.56;97046.16;4871413;29;20274;-40
2021/07/25 00:41:13;;;;;;;13.50;8.85;;;20.70;88.60;;;21.00;67.50;97048.63;4886156;29;20049;-40
2021/07/25 00:43:44;;;;;;;12.93;9.00;;;20.70;89.20;;;21.00;67.79;97050.50;4870877;29;20071;-40
2021/07/25 00:46:17;;;;;;;10.93;8.50;;;20.70;88.80;;;20.95;69.00;97051.22;4886812;29;20063;-40
2021/07/25 00:48:46;;;;;;;10.82;8.35;;;20.60;89.80;;;20.81;68.71;97042.56;4873702;29;20597;-40
2021/07/25 00:51:14;;;;;;;13.65;9.25;;;20.40;90.20;;;20.70;69.09;97050.72;4873443;29;20087;-40
2021/07/25 00:53:44;;;;;;;16.48;10.48;;;20.20;91.20;;;20.68;69.37;97044.75;4887642;29;20096;-40
2021/07/25 00:56:13;;;;;;;11.00;7.72;;;20.20;91.20;;;20.71;68.70;97036.16;4873976;29;20060;-40
2021/07/25 00:58:42;;;;;;;11.65;8.25;;;20.40;91.20;;;20.75;68.97;97029.22;4873610;29;20063;-40
2021/07/25 01:01:13;;;;;;;12.30;7.53;;;20.40;91.70;;;20.74;68.91;97025.66;4873213;29;20064;-40
2021/07/25 01:04:08;;;;;;;11.77;9.18;;;20.40;90.70;;;20.75;68.33;97015.69;4874508;29;20362;-40
2021/07/25 01:07:01;;;;;;;11.63;8.60;;;20.40;91.50;;;20.74;68.57;97005.91;4873802;29;20041;-40
2021/07/25 01:10:01;;;;;;;14.00;8.75;;;20.40;91.60;;;20.75;68.88;97002.97;4873378;29;20499;-39
2021/07/25 01:12:38;;;;;;;12.50;9.00;;;20.40;90.70;;;20.79;69.30;96960.03;4872832;29;20072;-39
2021/07/25 01:15:09;;;;;;;11.98;8.18;;;20.50;91.10;;;20.83;69.26;96943.06;4875679;29;20061;-40
2021/07/25 01:17:37;;;;;;;12.88;9.43;;;20.60;90.70;;;20.88;69.42;96960.44;4887298;29;20255;-40
2021/07/25 01:20:10;;;;;;;14.13;9.35;;;20.70;90.50;;;20.81;69.34;96985.78;4872714;29;20068;-40
2021/07/25 01:22:45;;;;;;;13.45;8.55;;;20.50;90.70;;;20.83;69.23;97004.47;4871617;29;20237;-40
2021/07/25 01:25:16;;;;;;;10.77;8.50;;;20.40;91.10;;;20.79;69.26;97014.94;4887484;29;20230;-40
2021/07/25 01:28:16;;;;;;;15.45;9.23;;;20.40;91.50;;;20.77;69.51;97022.47;4887310;29;20052;-40
2021/07/25 01:31:00;;;;;;;13.80;8.90;;;20.50;92.00;;;20.77;69.11;97018.97;4873149;29;20067;-40
2021/07/25 01:33:32;;;;;;;10.90;8.95;;;20.40;91.30;;;20.76;69.37;97028.97;4873722;29;20045;-40
2021/07/25 01:36:01;;;;;;;14.32;9.40;;;20.40;91.30;;;20.78;69.50;97021.44;4876122;29;20052;-40
2021/07/25 01:38:30;;;;;;;19.63;10.25;;;20.40;91.20;;;20.79;69.35;97030.38;4871631;29;20067;-40
2021/07/25 01:41:10;;;;;;;13.18;9.27;;;20.50;91.30;;;20.75;70.10;97024.63;4885473;29;20059;-40
2021/07/25 01:43:47;;;;;;;13.88;8.82;;;20.40;91.50;;;20.74;69.10;97022.13;4873331;29;20059;-40
2021/07/25 01:46:14;;;;;;;18.48;9.43;;;20.30;91.50;;;20.71;69.01;97023.47;4886648;29;20053;-41
2021/07/25 01:48:44;;;;;;;12.02;8.85;;;20.30;91.20;;;20.62;69.38;97014.88;4872747;29;20547;-41
2021/07/25 01:51:14;;;;;;;16.02;9.32;;;20.20;91.80;;;20.59;69.33;97015.38;4873127;29;20053;-40
2021/07/25 01:53:43;;;;;;;11.30;8.63;;;20.10;92.30;;;20.56;69.35;97018.53;4872350;29;20071;-40
2021/07/25 01:56:10;;;;;;;11.48;9.70;;;20.10;92.20;;;20.52;69.76;97016.56;4874033;29;20057;-41
2021/07/25 01:58:39;;;;;;;12.10;9.25;;;20.10;92.50;;;20.49;69.48;97012.47;4870640;29;20378;-41
2021/07/25 02:01:07;;;;;;;13.48;9.52;;;20.10;92.30;;;20.50;69.77;97010.56;4872751;29;20049;-41
2021/07/25 02:03:37;;;;;;;12.30;8.95;;;20.10;92.40;;;20.48;69.87;97021.63;4872982;29;20071;-40
2021/07/25 02:06:04;;;;;;;14.02;9.57;;;20.10;92.60;;;20.45;69.84;97017.53;4873836;29;20049;-40
2021/07/25 02:08:32;;;;;;;14.43;9.75;;;20.10;92.50;;;20.45;70.12;97006.72;4872734;29;20061;-40
2021/07/25 02:11:00;;;;;;;15.30;9.13;;;20.10;92.50;;;20.46;70.05;97021.03;4872440;29;20059;-40
2021/07/25 02:13:28;;;;;;;13.05;9.25;;;20.10;92.30;;;20.43;69.91;97018.81;4871435;29;20054;-41
2021/07/25 02:15:56;;;;;;;11.80;8.77;;;20.00;92.40;;;20.39;70.24;97020.34;4873389;29;20059;-40
2021/07/25 02:18:24;;;;;;;16.30;9.75;;;20.00;92.50;;;20.37;70.17;97025.97;4873642;29;20239;-41
2021/07/25 02:20:52;;;;;;;12.82;8.88;;;20.00;92.60;;;20.34;70.35;97015.66;4872063;29;20061;-40
2021/07/25 02:23:19;;;;;;;15.82;9.93;;;20.00;92.40;;;20.34;69.99;97014.84;4873126;29;20224;-40
2021/07/25 02:25:47;;;;;;;12.45;9.75;;;20.00;92.50;;;20.32;70.13;97016.97;4871839;29;20066;-40
2021/07/25 02:28:15;;;;;;;11.20;9.55;;;20.00;92.60;;;20.33;70.29;97007.78;4872246;29;20175;-41
2021/07/25 02:30:43;;;;;;;12.43;9.10;;;20.00;92.50;;;20.31;70.40;97007.22;4873177;29;20056;-41
2021/07/25 02:33:11;;;;;;;12.18;10.02;;;20.00;92.70;;;20.29;70.39;97014.75;4871939;29;20072;-40
2021/07/25 02:35:39;;;;;;;12.98;9.20;;;19.90;92.70;;;20.29;70.43;97009.34;4870705;29;20355;-41
2021/07/25 02:38:07;;;;;;;14.90;9.45;;;20.00;92.80;;;20.31;70.21;97005.31;4870994;29;20071;-40
2021/07/25 02:40:35;;;;;;;17.42;9.10;;;20.00;92.40;;;20.36;70.37;97010.03;4871523;29;20199;-40
2021/07/25 02:43:03;;;;;;;13.60;9.68;;;20.00;92.10;;;20.39;70.09;97001.41;4871045;29;20061;-40
2021/07/25 02:45:31;;;;;;;14.00;8.68;;;20.10;91.90;;;20.38;70.24;96997.91;4872664;29;20071;-41
2021/07/25 02:47:59;;;;;;;14.93;9.65;;;20.10;92.00;;;20.37;70.00;97003.53;4871245;29;20355;-41
2021/07/25 02:50:27;;;;;;;14.15;9.90;;;20.10;92.20;;;20.36;69.87;97032.47;4872141;29;20401;-41
2021/07/25 02:52:54;;;;;;;12.38;9.07;;;20.10;92.20;;;20.36;70.41;97039.75;4871905;29;20059;-41
2021/07/25 02:55:22;;;;;;;13.82;9.20;;;20.00;92.10;;;20.35;70.29;97038.91;4872313;29;20248;-40
2021/07/25 02:57:50;;;;;;;12.65;8.40;;;20.00;92.20;;;20.34;70.37;97036.47;4871364;29;20075;-40
2021/07/25 03:00:19;;;;;;;12.15;9.13;;;20.00;92.30;;;20.34;70.30;97042.69;4872446;29;20240;-41
2021/07/25 03:02:46;;;;;;;11.15;9.65;;;20.00;92.20;;;20.33;69.89;97034.81;4871563;29;20343;-40
2021/07/25 03:05:15;;;;;;;11.77;9.00;;;20.00;92.40;;;20.33;70.00;97040.22;4872616;29;20243;-41
2021/07/25 03:07:42;;;;;;;11.38;8.10;;;20.00;92.10;;;20.35;70.35;97033.50;4872240;29;20059;-41
2021/07/25 03:10:11;;;;;;;9.15;7.97;;;20.10;92.30;;;20.37;70.30;97031.38;4872464;29;20052;-40
2021/07/25 03:12:39;;;;;;;10.57;8.80;;;20.10;92.10;;;20.39;70.12;97033.88;4872144;29;20053;-40
2021/07/25 03:15:07;;;;;;;12.45;8.18;;;20.20;91.80;;;20.39;69.99;97040.06;4870498;29;20056;-41
2021/07/25 03:17:35;;;;;;;10.48;8.18;;;20.10;91.80;;;20.40;69.88;97040.94;4873313;29;20061;-40
2021/07/25 03:20:04;;;;;;;10.55;8.00;;;20.20;91.60;;;20.40;69.82;97036.34;4870698;29;20065;-40
2021/07/25 03:22:32;;;;;;;10.48;8.32;;;20.20;91.40;;;20.39;70.08;97037.38;4870779;29;20246;-40
2021/07/25 03:25:00;;;;;;;12.02;8.23;;;20.20;91.30;;;20.39;70.10;97037.38;4870389;29;20057;-41
2021/07/25 03:27:29;;;;;;;9.93;8.27;;;20.10;91.20;;;20.39;69.73;97039.28;4871146;29;20053;-41
2021/07/25 03:29:57;;;;;;;11.35;8.30;;;20.10;91.10;;;20.38;69.54;97040.34;4872214;29;20056;-40
2021/07/25 03:32:26;;;;;;;9.60;7.75;;;20.10;91.00;;;20.36;69.67;97029.75;4871791;29;20053;-40
2021/07/25 03:34:54;;;;;;;13.25;9.02;;;20.10;90.90;;;20.33;69.72;97035.63;4870995;29;20063;-41
2021/07/25 03:37:23;;;;;;;14.75;9.35;;;20.00;90.80;;;20.28;69.71;97030.13;4872102;29;20068;-40
2021/07/25 03:39:54;;;;;;;12.02;9.45;;;19.90;91.10;;;20.22;69.70;97036.47;4871739;29;20056;-40
2021/07/25 03:42:22;;;;;;;15.80;10.13;;;19.80;91.40;;;20.18;69.71;97032.59;4871409;29;20057;-40
2021/07/25 03:44:51;;;;;;;11.60;9.50;;;19.80;91.60;;;20.16;69.99;97048.22;4872042;29;20087;-40
2021/07/25 03:47:19;;;;;;;11.20;7.88;;;19.70;91.80;;;20.10;69.83;97050.00;4870699;29;20057;-40
2021/07/25 03:49:47;;;;;;;11.30;7.97;;;19.70;91.80;;;20.06;69.96;97046.13;4885774;29;20076;-40
2021/07/25 03:52:15;;;;;;;12.98;8.90;;;19.70;91.90;;;20.04;69.70;97040.97;4870998;29;20071;-40
2021/07/25 03:54:43;;;;;;;9.32;7.63;;;19.70;91.70;;;20.04;69.78;97045.56;4872719;29;20056;-40
2021/07/25 03:57:11;;;;;;;11.95;8.32;;;19.70;91.70;;;20.03;69.86;97042.03;4870061;29;20585;-41
2021/07/25 03:59:39;;;;;;;11.82;8.73;;;19.70;91.70;;;20.03;70.02;97039.34;4871301;29;20368;-41
2021/07/25 04:02:07;;;;;;;12.68;9.05;;;19.70;91.60;;;20.00;69.86;97031.69;4871303;29;20064;-41
2021/07/25 04:04:35;;;;;;;10.68;7.63;;;19.70;91.50;;;19.98;69.92;97049.19;4870888;29;20065;-41
2021/07/25 04:07:03;;;;;;;11.93;8.93;;;19.60;91.60;;;19.94;69.98;97048.03;4871057;29;20088;-40
2021/07/25 04:09:31;;;;;;;10.35;8.40;;;19.60;91.70;;;19.91;70.14;97053.88;4870250;29;20063;-41
2021/07/25 04:11:59;;;;;;;12.38;8.15;;;19.50;92.00;;;19.89;70.22;97051.44;4871057;29;20067;-40
2021/07/25 04:14:27;;;;;;;13.57;7.35;;;19.60;92.20;;;19.93;70.30;97049.06;4871872;29;20065;-40
2021/07/25 04:16:54;;;;;;;11.23;7.93;;;19.70;92.30;;;19.95;70.16;97053.19;4870545;29;20436;-40
2021/07/25 04:19:23;;;;;;;10.63;8.25;;;19.70;91.90;;;19.94;70.28;97054.25;4871728;29;20049;-40
2021/07/25 04:21:50;;;;;;;10.20;8.65;;;19.70;92.00;;;19.97;70.42;97053.78;4871269;29;20072;-41
2021/07/25 04:24:18;;;;;;;11.65;8.38;;;19.70;92.00;;;19.97;70.50;97056.50;4875232;29;20045;-41
2021/07/25 04:26:46;;;;;;;11.35;8.57;;;19.70;92.10;;;20.02;70.58;97047.66;4873938;29;20075;-40
2021/07/25 04:29:15;;;;;;;11.00;8.38;;;19.80;92.00;;;20.06;70.37;97043.44;4875809;29;20049;-40
2021/07/25 04:31:43;;;;;;;11.18;9.23;;;19.80;91.80;;;20.09;70.34;97044.84;4872387;29;20052;-40
2021/07/25 04:34:12;;;;;;;10.50;8.32;;;19.80;92.60;;;20.11;70.65;97046.25;4874630;29;20061;-41
2021/07/25 04:36:42;;;;;;;17.05;9.65;;;19.90;91.80;;;20.13;70.32;97049.53;4873825;29;20049;-40
2021/07/25 04:39:11;;;;;;;11.85;9.27;;;19.90;92.60;;;20.14;70.34;97044.94;4887243;29;20071;-41
2021/07/25 04:41:46;;;;;;;12.27;8.85;;;19.90;91.70;;;20.15;70.26;97052.00;4874481;29;20068;-40
2021/07/25 04:44:39;;;;;;;11.07;8.57;;;19.90;91.60;;;20.12;70.06;97050.59;4888285;29;20364;-40
2021/07/25 04:47:17;;;;;;;9.88;8.15;;;19.90;92.00;;;20.15;69.97;97063.63;4886870;29;20243;-40
2021/07/25 04:50:05;;;;;;;15.88;8.80;;;19.90;91.90;;;20.13;70.15;97063.06;4871849;29;20080;-40
2021/07/25 04:52:40;;;;;;;11.93;8.13;;;19.90;92.10;;;20.14;70.51;97056.59;4874562;29;20061;-40
2021/07/25 04:55:12;;;;;;;12.23;9.25;;;19.90;92.10;;;20.18;70.10;97056.94;4874076;29;20057;-40
2021/07/25 04:57:42;;;;;;;11.50;8.60;;;19.90;91.80;;;20.20;70.16;97052.09;4872806;29;20064;-40
2021/07/25 05:00:15;;;;;;;9.05;8.02;;;20.00;91.80;;;20.21;70.42;97062.69;4873029;29;20143;-40
2021/07/25 05:02:44;;;;;;;14.00;8.80;;;20.00;92.00;;;20.23;70.59;97070.56;4873673;29;20283;-40
2021/07/25 05:05:13;;;;;;;11.65;8.68;;;20.00;91.70;;;20.22;70.35;97072.44;4874070;29;20284;-41
2021/07/25 05:07:43;;;;;;;13.05;9.57;;;20.00;91.80;;;20.22;70.77;97072.44;4873926;29;20456;-40
2021/07/25 05:10:11;;;;;;;13.30;7.80;;;20.00;91.90;;;20.23;70.80;97074.06;4872878;29;20057;-41
2021/07/25 05:13:03;;;;;;;13.73;7.65;;;20.10;91.80;;;20.24;70.75;97078.44;4874940;29;20071;-41
2021/07/25 05:15:35;;;;;;;11.20;8.30;;;20.10;91.80;;;20.27;70.61;97083.34;4873259;29;20373;-41
2021/07/25 05:18:08;;;;;;;11.70;8.55;;;20.10;91.60;;;20.30;70.65;97084.78;4888836;29;20064;-40
2021/07/25 05:21:04;;;;;;;16.15;9.60;;;20.20;91.30;;;20.29;70.22;97088.53;4873790;29;20369;-40
2021/07/25 05:23:49;;;;;;;10.82;7.32;;;20.20;91.60;;;20.32;70.45;97085.38;4872444;29;20049;-40
2021/07/25 05:26:26;;;;;;;15.27;9.20;;;20.20;92.40;;;20.33;70.67;97088.88;4874657;29;20056;-40
2021/07/25 05:28:57;;;;;;;10.10;7.45;;;20.20;91.70;;;20.32;70.43;97089.94;4873949;29;20059;-40
2021/07/25 05:31:33;;;;;;;12.38;9.05;;;20.10;91.80;;;20.35;70.52;97094.88;4887183;29;20375;-40
2021/07/25 05:34:02;;;;;;;9.02;7.45;;;20.20;91.90;;;20.35;70.93;97087.56;4871439;29;20065;-40
2021/07/25 05:36:31;;;;;;;14.73;7.97;;;20.20;91.70;;;20.35;70.73;97090.28;4872188;29;20059;-40
2021/07/25 05:38:59;;;;;;;13.05;6.82;;;20.20;91.70;;;20.38;70.92;97089.81;4873103;29;20060;-40
2021/07/25 05:41:27;;;;;;;12.65;6.78;;;20.20;91.60;;;20.44;71.01;97096.16;4872948;29;20218;-40
2021/07/25 05:43:55;;;;;;;13.80;8.32;;;20.30;91.70;;;20.50;70.67;97099.78;4873152;29;20072;-40
2021/07/25 05:46:23;;;;;;;13.32;7.85;;;20.40;91.40;;;20.52;70.51;97092.25;4874299;29;20914;-40
2021/07/25 05:48:51;;;;;;;9.50;6.78;;;20.40;90.90;;;20.57;70.23;97089.66;4873955;29;20055;-40
2021/07/25 05:51:19;;;;;;;10.23;7.00;;;20.40;90.90;;;20.58;70.46;97092.13;4873770;29;20053;-40
2021/07/25 05:53:47;;;;;;;10.25;7.45;;;20.50;90.60;;;20.60;70.36;97092.72;4873247;29;20255;-40
2021/07/25 05:56:15;;;;;;;11.27;7.40;;;20.50;90.90;;;20.64;70.34;97093.91;4873613;29;20259;-40
2021/07/25 05:58:43;;;;;;;8.93;6.97;;;20.60;90.90;;;20.67;70.61;97089.91;4873446;29;20239;-40
2021/07/25 06:01:11;;;;;;;12.52;6.97;;;20.60;90.60;;;20.71;70.25;97096.47;4871989;29;20087;-40
2021/07/25 06:03:39;;;;;;;7.03;6.22;;;20.60;90.30;;;20.75;70.10;97102.25;4872920;29;20048;-40
2021/07/25 06:06:08;;;;;;;8.05;6.90;;;20.60;90.30;;;20.74;70.41;97109.50;4872874;29;20061;-40
2021/07/25 06:08:36;;;;;;;13.55;7.93;;;20.70;90.70;;;20.77;70.42;97105.53;4872940;29;20044;-41
2021/07/25 06:11:04;;;;;;;11.38;6.55;;;20.70;90.70;;;20.83;70.48;97105.38;4873244;29;20048;-39
2021/07/25 06:13:32;;;;;;;9.05;7.05;;;20.80;90.60;;;20.90;70.41;97104.41;4871944;29;20053;-39
2021/07/25 06:16:00;;;;;;;8.10;6.70;;;20.90;90.40;;;20.96;69.85;97100.75;4870810;29;20049;-40
2021/07/25 06:18:28;;;;;;;9.52;6.53;;;20.90;90.00;;;20.98;69.97;97104.88;4870669;29;20056;-40
2021/07/25 06:20:56;;;;;;;9.35;6.03;;;21.00;89.30;;;21.00;69.92;97101.91;4872240;29;20061;-39
2021/07/25 06:23:24;;;;;;;9.20;6.03;;;21.00;89.20;;;21.00;69.42;97102.72;4871140;29;20076;-39
2021/07/25 06:25:51;;;;;;;7.05;5.47;;;21.00;89.20;;;21.03;69.54;97101.41;4872862;29;20067;-40
2021/07/25 06:28:19;;;;;;;7.43;6.22;;;21.00;88.90;;;21.06;69.17;97100.13;4872141;29;20063;-40
2021/07/25 06:30:47;;;;;;;8.57;6.47;;;21.00;88.80;;;21.10;69.44;97096.69;4870536;29;20299;-40
2021/07/25 06:33:15;;;;;;;12.88;7.10;;;21.10;89.10;;;21.13;69.60;97098.09;4872214;29;20063;-40
2021/07/25 06:35:43;;;;;;;9.63;7.53;;;21.10;89.50;;;21.16;69.78;97094.91;4867103;29;20053;-40
2021/07/25 06:38:19;;;;;;;11.63;7.65;;;21.20;89.60;;;21.18;69.89;97100.91;4853722;29;20411;-40
2021/07/25 06:40:54;;;;;;;12.45;7.82;;;21.20;89.50;;;21.16;69.73;97100.31;4852254;29;20049;-39
2021/07/25 06:43:23;;;;;;;10.57;7.53;;;21.20;89.30;;;21.17;69.98;97096.53;4853176;29;20233;-39
2021/07/25 06:45:54;;;;;;;8.38;6.95;;;21.20;89.20;;;21.19;69.96;97097.97;4852784;29;20064;-39
2021/07/25 06:48:28;;;;;;;14.77;7.30;;;21.20;89.00;;;21.20;69.52;97091.47;4851935;29;20378;-40
2021/07/25 06:50:57;;;;;;;;;;;21.20;89.00;;;21.16;69.19;97093.00;4854292;29;20061;-39
2021/07/25 06:53:28;;;;;;;9.10;7.55;;;21.20;89.60;;;21.20;69.40;97098.78;4853136;29;19920;-39
2021/07/25 06:56:06;;;;;;;13.27;7.45;;;21.10;89.60;;;21.21;69.45;97092.31;4852538;29;20057;-40
2021/07/25 06:58:34;;;;;;;10.25;8.18;;;21.20;89.60;;;21.18;70.11;97090.88;4852518;29;20060;-40
2021/07/25 07:01:03;;;;;;;10.07;7.78;;;21.20;89.50;;;21.22;70.23;97092.03;4851511;29;20053;-40
2021/07/25 07:03:31;;;;;;;10.65;7.90;;;21.30;89.80;;;21.26;70.41;97092.38;4853848;29;20255;-40
2021/07/25 07:05:59;;;;;;;10.35;6.97;;;21.40;89.80;;;21.32;70.09;97094.09;4850776;29;20049;-40
2021/07/25 07:08:27;;;;;;;11.20;8.55;;;21.40;89.70;;;21.36;69.98;97089.84;4851532;29;20072;-40
2021/07/25 07:10:55;;;;;;;10.13;7.32;;;21.40;89.70;;;21.44;70.16;97096.78;4851781;29;20257;-40
2021/07/25 07:13:23;;;;;;;11.95;7.93;;;21.50;89.90;;;21.49;69.79;97101.47;4851054;29;20056;-40
2021/07/25 07:15:54;;;;;;;9.15;8.25;;;21.60;89.70;;;21.53;69.95;97089.09;4851973;29;20071;-40
2021/07/25 07:18:22;;;;;;;11.85;8.05;;;21.60;89.60;;;21.58;69.83;97079.16;4851833;29;20301;-40
2021/07/25 07:20:51;;;;;;;13.27;7.93;;;21.70;89.50;;;21.65;70.19;97070.06;4851315;29;20221;-40
2021/07/25 07:23:23;;;;;;;9.48;7.40;;;21.80;89.50;;;21.70;69.84;97081.78;4852519;29;20057;-40
2021/07/25 07:25:53;;;;;;;12.32;8.68;;;21.80;89.40;;;21.77;69.76;97077.03;4849711;29;20060;-40
2021/07/25 07:28:22;;;;;;;9.07;7.20;;;21.90;89.20;;;21.76;69.98;97074.56;4850627;29;20057;-40
2021/07/25 07:30:51;;;;;;;12.05;7.72;;;21.90;89.00;;;21.78;69.86;97075.97;4853373;29;20054;-39
2021/07/25 07:33:22;;;;;;;12.70;7.60;;;21.90;88.70;;;21.82;69.81;97068.97;4852940;29;20063;-40
2021/07/25 07:35:53;;;;;;;11.07;7.65;;;22.00;88.50;;;21.87;69.23;97073.66;4868357;29;20063;-40
2021/07/25 07:38:21;;;;;;;9.07;7.30;;;22.00;88.20;;;21.92;69.65;97075.63;4871725;29;20057;-40
2021/07/25 07:40:49;;;;;;;10.07;7.57;;;22.00;88.20;;;21.94;69.30;97071.59;4869118;29;20079;-40
2021/07/25 07:43:18;;;;;;;8.68;7.68;;;22.10;88.20;;;21.96;69.36;97082.19;4869911;29;20242;-40
2021/07/25 07:45:46;;;;;;;10.35;7.07;;;22.00;87.90;;;21.96;69.00;97085.72;4869195;29;20045;-40
2021/07/25 07:48:15;;;;;;;10.48;8.13;;;22.10;87.70;;;21.99;69.07;97079.81;4870702;29;20049;-40
2021/07/25 07:50:43;;;;;;;7.68;6.78;;;22.20;87.70;;;22.03;68.89;97089.06;4869608;29;20047;-40
2021/07/25 07:53:12;;;;;;;12.20;6.57;;;22.20;87.50;;;22.05;68.82;97085.31;4870158;29;20057;-40
2021/07/25 07:55:40;;;;;;;9.30;6.88;;;22.20;87.30;;;22.07;68.78;97088.59;4870501;29;20057;-40
2021/07/25 07:58:08;;;;;;;13.23;7.53;;;22.20;87.40;;;22.09;68.43;97095.41;4872262;29;20061;-40
2021/07/25 08:00:35;;;;;;;6.90;6.10;;;22.20;87.10;;;22.06;68.08;97086.94;4878161;29;20061;-40
2021/07/25 08:03:06;;;;;;;9.43;7.75;;;22.10;86.70;;;22.07;68.36;97084.00;4881300;29;20274;-40
2021/07/25 08:05:35;;;;;;;7.85;5.40;;;22.20;87.10;;;22.14;67.60;97083.81;4882817;29;20064;-40
2021/07/25 08:08:03;;;;;;;8.45;5.10;;;22.30;85.70;;;22.14;66.94;97075.66;4882753;29;20056;-40
2021/07/25 08:10:31;;;;;;;7.25;5.32;;;22.20;84.80;;;22.15;66.79;97080.03;4883574;29;20079;-40
2021/07/25 08:12:59;;;;;;;8.10;5.80;;;22.20;84.30;;;22.21;67.24;97077.13;4880653;29;20044;-40
2021/07/25 08:15:27;;;;;;;13.20;6.78;;;22.40;85.00;;;22.25;66.74;97073.97;4883600;29;20238;-40
2021/07/25 08:17:55;;;;;;;9.25;6.93;;;22.30;84.30;;;22.21;66.37;97069.00;4882639;29;20242;-40
2021/07/25 08:20:23;;;;;;;11.38;6.13;;;22.30;84.40;;;22.22;66.62;97078.78;4893041;29;20059;-40
2021/07/25 08:22:51;;;;;;;6.68;5.20;;;22.30;84.40;;;22.25;66.31;97080.19;4874390;29;20064;-40
2021/07/25 08:25:19;;;;;;;7.80;5.22;;;22.30;83.70;;;22.17;65.26;97075.19;4865379;29;20054;-40
2021/07/25 08:27:47;;;;;;;6.97;6.22;;;22.10;83.40;;;22.15;66.12;97074.63;4855641;29;20343;-40
2021/07/25 08:30:15;;;;;;;10.73;7.10;;;22.10;84.10;;;22.15;66.11;97071.91;4855292;29;20060;-40
2021/07/25 08:32:43;;;;;;;7.60;6.53;;;22.10;84.10;;;22.20;66.19;97077.41;4855498;29;20060;-40
2021/07/25 08:35:12;;;;;;;8.20;6.00;;;22.20;84.50;;;22.19;66.47;97076.56;4854689;29;20064;-40
2021/07/25 08:37:40;;;;;;;9.40;6.43;;;22.20;84.50;;;22.20;66.25;97078.22;4855937;29;20068;-40
2021/07/25 08:40:14;;;;;;;7.55;6.55;;;22.20;84.10;;;22.22;66.55;97086.09;4855048;29;20064;-40
2021/07/25 08:43:05;;;;;;;8.50;6.35;;;22.30;84.60;;;22.28;66.44;97085.13;4855572;29;20061;-40
2021/07/25 08:45:37;;;;;;;7.10;6.22;;;22.40;83.90;;;22.32;65.85;97080.84;4856562;29;20049;-40
2021/07/25 08:48:18;;;;;;;12.45;7.15;;;22.40;83.20;;;22.35;65.78;97087.66;4855201;29;20057;-40
2021/07/25 08:51:05;;;;;;;9.00;6.80;;;22.50;82.40;;;22.39;66.02;97080.66;4855044;29;20265;-40
2021/07/25 08:53:35;;;;;;;7.70;5.65;;;22.60;82.30;;;22.44;65.96;97080.72;4855596;29;20061;-40
2021/07/25 08:56:04;;;;;;;9.00;5.32;;;22.60;82.80;;;22.50;65.54;97090.56;4853687;29;20068;-40
2021/07/25 08:58:38;;;;;;;8.65;5.80;;;22.70;82.80;;;22.55;65.55;97092.56;4856876;29;20061;-40
2021/07/25 09:01:10;;;;;;;6.72;6.00;;;22.70;82.50;;;22.60;65.43;97098.88;4854943;29;20053;-41
2021/07/25 09:03:38;;;;;;;9.25;6.15;;;22.80;82.30;;;22.65;65.18;97097.28;4853110;29;20053;-41
2021/07/25 09:06:08;;;;;;;10.65;6.28;;;22.90;82.20;;;22.68;65.15;97091.34;4855904;29;20060;-41
2021/07/25 09:08:37;;;;;;;10.73;5.95;;;23.00;82.00;;;22.71;65.39;97077.28;4852597;29;20058;-41
2021/07/25 09:11:07;;;;;;;8.30;6.15;;;23.00;82.20;;;22.79;65.75;97079.53;4854111;29;20053;-42
2021/07/25 09:13:36;;;;;;;8.88;6.28;;;23.20;82.30;;;22.89;65.63;97081.56;4855249;29;20045;-41
2021/07/25 09:16:05;;;;;;;7.45;6.70;;;23.30;82.10;;;22.97;65.13;97087.38;4855272;29;20061;-39
2021/07/25 09:18:33;;;;;;;8.23;6.13;;;23.40;81.50;;;23.02;64.98;97081.16;4853597;29;20065;-39
2021/07/25 09:21:01;;;;;;;7.80;6.35;;;23.50;82.00;;;23.07;64.80;97088.56;4854166;29;20069;-40
2021/07/25 09:23:29;;;;;;;7.50;6.35;;;23.50;81.10;;;23.14;65.25;97087.28;4854267;29;20356;-41
2021/07/25 09:25:58;;;;;;;9.18;6.30;;;23.60;81.00;;;23.19;64.71;97079.22;4855493;29;20334;-41
2021/07/25 09:28:31;;;;;;;6.95;6.15;;;23.60;80.00;;;23.20;64.55;97085.44;4853428;29;20068;-41
2021/07/25 09:31:15;;;;;;;6.65;5.38;;;23.60;80.00;;;23.23;64.55;97084.94;4853342;29;20049;-41
2021/07/25 09:33:45;;;;;;;7.55;6.13;;;23.70;78.80;;;23.29;64.36;97085.81;4853759;29;20049;-40
2021/07/25 09:36:22;;;;;;;6.47;5.13;;;23.70;79.90;;;23.38;64.51;97087.00;4853809;29;20182;-41
2021/07/25 09:38:54;;;;;;;6.22;5.60;;;23.80;79.90;;;23.45;63.81;97097.66;4853687;29;20061;-40
2021/07/25 09:41:26;;;;;;;6.50;5.00;;;23.90;78.50;;;23.49;63.52;97096.88;4855105;29;20060;-40
2021/07/25 09:44:13;;;;;;;6.03;5.22;;;23.90;78.80;;;23.56;63.58;97099.38;4854228;29;20057;-40
2021/07/25 09:46:49;;;;;;;8.32;6.05;;;24.00;77.70;;;23.62;63.11;97095.63;4854557;29;20058;-40
2021/07/25 09:49:18;;;;;;;4.90;4.40;;;23.90;78.10;;;23.64;62.99;97096.19;4853988;29;20062;-40
2021/07/25 09:51:48;;;;;;;8.27;5.70;;;24.00;78.50;;;23.66;62.90;97094.03;4854088;29;20053;-40
2021/07/25 09:54:25;;;;;;;8.38;6.15;;;24.00;78.20;;;23.67;61.89;97100.28;4852315;29;20062;-40
2021/07/25 09:57:12;;;;;;;6.07;4.88;;;24.10;77.20;;;23.70;62.47;97106.03;4855297;29;20058;-40
2021/07/25 09:59:40;;;;;;;6.32;5.68;;;24.20;76.00;;;23.70;62.14;97113.34;4853850;29;20085;-40
2021/07/25 10:02:32;;;;;;;5.97;5.38;;;24.10;77.20;;;23.67;62.16;97113.88;4852596;29;20053;-40
2021/07/25 10:05:16;;;;;;;6.70;5.15;;;24.10;75.60;;;23.66;61.78;97112.25;4853839;29;20245;-41
2021/07/25 10:07:48;;;;;;;5.45;4.82;;;24.00;75.50;;;23.66;61.75;97104.91;4852398;29;20072;-40
2021/07/25 10:10:18;;;;;;;6.10;4.63;;;24.00;76.80;;;23.66;61.07;97104.91;4854034;29;20061;-40
2021/07/25 10:12:47;;;;;;;6.38;4.45;;;24.00;76.30;;;23.69;60.96;97107.13;4853624;29;20236;-41
2021/07/25 10:15:16;;;;;;;5.55;4.47;;;24.00;75.90;;;23.68;60.45;97101.94;4854706;29;20593;-40
2021/07/25 10:17:49;;;;;;;5.40;4.63;;;24.10;75.70;;;23.66;61.04;97094.03;4857049;29;20451;-40
2021/07/25 10:20:17;;;;;;;8.13;5.07;;;24.10;76.00;;;23.72;61.11;97103.84;4861383;29;20366;-40
2021/07/25 10:22:50;;;;;;;6.55;4.60;;;24.10;76.00;;;23.77;60.77;97100.38;4853983;29;20069;-40
2021/07/25 10:25:23;;;;;;;5.15;4.53;;;24.10;75.10;;;23.81;60.58;97106.97;4865471;29;20045;-40
2021/07/25 10:27:56;;;;;;;5.97;4.93;;;24.20;75.00;;;23.80;60.66;97105.31;4871685;29;20049;-40
2021/07/25 10:30:26;;;;;;;;;;;24.10;75.40;;;23.75;60.09;97114.22;4873852;29;20049;-40